EGLL/LHR METAR and TAF weather

Enter ICAO airport designator
Station Type Date Time Source
EGLL METAR 2021/04/18 02:50 UTC NOAA

EGLL 180250Z AUTO 08001KT 9999 NCD 04/M03 Q1026 NOSIG


Station Type Date Time Source
EGLL Decoded METAR 2021/04/18 02:50 UTC NOAA

London / Heathrow Airport, United Kingdom (EGLL) 51-29N 000-27W 0M
Apr 17, 2021 - 10:50 PM EDT / 2021.04.18 0250 UTC
Wind: from the E (080 degrees) at 1 MPH (1 KT):0
Visibility: greater than 7 mile(s):0
Temperature: 39 F (4 C)
Dew Point: 26 F (-3 C)
Relative Humidity: 60%
Pressure (altimeter): 30.30 in. Hg (1026 hPa)
ob: EGLL 180250Z AUTO 08001KT 9999 NCD 04/M03 Q1026 NOSIG
cycle: 3

Station Type Date Time Source
EGLL TAF 2021/04/17 18:57 UTC NOAA

TAF
AMD TAF
AMD EGLL 171854Z 1718/1824 08008KT 9999 FEW045

Example: see airport list